createdAt,value
2018-03-28T00:00:18.393Z,19.56
2018-03-28T00:06:09.281Z,20.58
2018-03-28T00:12:00.198Z,20.79
2018-03-28T00:17:51.089Z,21.98
2018-03-28T00:23:42.072Z,22.8
2018-03-28T00:29:32.864Z,26.08
2018-03-28T00:35:23.854Z,26.49
2018-03-28T00:41:14.649Z,28.23
2018-03-28T00:47:05.614Z,26.8
2018-03-28T00:52:56.513Z,25.89
2018-03-28T00:58:47.352Z,26.05
2018-03-28T01:04:38.224Z,23.25
2018-03-28T01:10:29.144Z,24.52
2018-03-28T01:16:20.070Z,24.92
2018-03-28T01:22:10.898Z,24
2018-03-28T01:28:01.801Z,27.06
2018-03-28T01:33:52.729Z,31.49
2018-03-28T01:39:43.608Z,29.3
2018-03-28T01:45:34.485Z,29.24
2018-03-28T01:51:25.391Z,25.64
2018-03-28T01:57:16.275Z,28.39
2018-03-28T02:03:07.214Z,30.99
2018-03-28T02:08:58.099Z,36.44
2018-03-28T02:14:48.957Z,35.08
2018-03-28T02:20:39.864Z,43.04
2018-03-28T02:26:30.787Z,31.53
2018-03-28T02:32:21.661Z,26.09
2018-03-28T02:38:12.543Z,31.13
2018-03-28T02:44:03.480Z,27.92
2018-03-28T02:49:54.320Z,29.39
2018-03-28T02:55:45.255Z,26.69
2018-03-28T03:01:36.154Z,25.92
2018-03-28T03:07:27.072Z,27.83
2018-03-28T03:13:17.935Z,27.06
2018-03-28T03:19:08.838Z,26.64
2018-03-28T03:24:59.673Z,30.55
2018-03-28T03:30:50.655Z,27.35
2018-03-28T03:36:41.458Z,31.61
2018-03-28T03:42:32.379Z,33.3
2018-03-28T03:48:23.266Z,34.75
2018-03-28T03:54:14.183Z,34.92
2018-03-28T04:00:05.055Z,30.86
2018-03-28T04:05:55.983Z,29.76
2018-03-28T04:11:46.846Z,30.27
2018-03-28T04:17:37.709Z,32.24
2018-03-28T04:23:28.631Z,31.2
2018-03-28T04:29:19.534Z,31.45
2018-03-28T04:35:10.411Z,32.99
2018-03-28T04:41:01.303Z,37.7
2018-03-28T04:46:52.192Z,41.53
2018-03-28T04:52:43.144Z,32.92
2018-03-28T04:58:34.013Z,35.81
2018-03-28T05:04:24.877Z,35.28
2018-03-28T05:10:15.852Z,30.11
2018-03-28T05:16:06.679Z,28.54
2018-03-28T05:21:57.596Z,31.07
2018-03-28T05:27:48.416Z,32.86
2018-03-28T05:33:39.325Z,32.5
2018-03-28T05:39:30.233Z,31.44
2018-03-28T05:45:21.136Z,32.14
2018-03-28T05:51:12.006Z,33.5
2018-03-28T05:57:02.927Z,35.6
2018-03-28T06:02:53.794Z,33.48
2018-03-28T06:08:44.689Z,33.25
2018-03-28T06:14:35.590Z,33.31
2018-03-28T06:20:26.503Z,39.25
2018-03-28T06:26:17.383Z,33.56
2018-03-28T06:32:08.240Z,37.4
2018-03-28T06:37:59.123Z,45.53
2018-03-28T06:43:50.017Z,47.02
2018-03-28T06:49:40.964Z,52
2018-03-28T06:55:31.813Z,41.6
2018-03-28T07:01:22.731Z,41.34
2018-03-28T07:07:13.584Z,36.78
2018-03-28T07:13:04.473Z,33.29
2018-03-28T07:18:55.456Z,33.61
2018-03-28T07:24:46.253Z,36.3
2018-03-28T07:30:37.195Z,36.67
2018-03-28T07:36:28.035Z,34.3
2018-03-28T07:42:18.920Z,35.97
2018-03-28T07:48:09.840Z,33.5
2018-03-28T07:54:00.702Z,35.89
2018-03-28T07:59:51.620Z,35.44
2018-03-28T08:05:42.521Z,41.36
2018-03-28T08:11:33.360Z,37.28
2018-03-28T08:17:24.308Z,45.58
2018-03-28T08:23:15.161Z,60.5
2018-03-28T08:29:06.059Z,60.31
2018-03-28T08:34:56.969Z,58.53
2018-03-28T08:40:47.840Z,60.63
2018-03-28T08:46:38.738Z,58.58
2018-03-28T08:52:29.651Z,55.92
2018-03-28T08:58:20.507Z,53.89
2018-03-28T09:04:11.376Z,60.72
2018-03-28T09:10:02.335Z,30.63
2018-03-28T09:15:53.206Z,30.77
2018-03-28T09:21:44.104Z,31.13
2018-03-28T09:27:34.958Z,15.54
2018-03-28T09:33:25.851Z,26.73
2018-03-28T09:39:16.768Z,26.93
2018-03-28T09:45:07.660Z,23.53
2018-03-28T09:50:58.591Z,20.15
2018-03-28T09:56:49.536Z,24.95
2018-03-28T10:02:40.337Z,23.86
2018-03-28T10:08:31.214Z,22.46
2018-03-28T10:14:22.198Z,23.95
2018-03-28T10:20:12.980Z,21.21
2018-03-28T10:26:03.930Z,21.67
2018-03-28T10:31:54.776Z,24.8
2018-03-28T10:37:45.678Z,26.39
2018-03-28T10:43:36.563Z,24.21
2018-03-28T10:49:27.509Z,24.17
2018-03-28T10:55:18.400Z,26.83
2018-03-28T11:01:09.284Z,25.76
2018-03-28T11:07:00.150Z,25.9
2018-03-28T11:12:51.063Z,24.6
2018-03-28T11:18:41.963Z,24.06
2018-03-28T11:24:32.865Z,21.53
2018-03-28T11:30:23.733Z,25.83
2018-03-28T11:36:14.612Z,24.42
2018-03-28T11:42:05.527Z,16.48
2018-03-28T11:47:56.401Z,17.15
2018-03-28T11:53:47.326Z,12.62
2018-03-28T11:59:38.267Z,13.67
2018-03-28T12:05:29.185Z,21.14
2018-03-28T12:11:20.028Z,20.36
2018-03-28T12:17:10.928Z,19.75
2018-03-28T12:23:01.825Z,18.19
2018-03-28T12:28:52.671Z,18.44
2018-03-28T12:34:43.589Z,15.87
2018-03-28T12:40:34.497Z,16.11
2018-03-28T12:46:25.395Z,13.79
2018-03-28T12:52:16.319Z,9.75
2018-03-28T12:58:07.220Z,7.79
2018-03-28T13:03:58.085Z,7.51
2018-03-28T13:09:48.996Z,7.51
2018-03-28T13:15:39.870Z,6.01
2018-03-28T13:21:30.736Z,8.39
2018-03-28T13:27:21.686Z,10.4
2018-03-28T13:33:12.629Z,8.58
2018-03-28T13:39:03.478Z,9.96
2018-03-28T13:44:54.361Z,9.71
2018-03-28T13:50:45.250Z,10.58
2018-03-28T13:56:36.220Z,8.78
2018-03-28T14:02:27.062Z,8.34
2018-03-28T14:08:17.986Z,9.27
2018-03-28T14:14:08.867Z,7.99
2018-03-28T14:19:59.772Z,11.02
2018-03-28T14:25:50.815Z,9.16
2018-03-28T14:31:41.580Z,6.97
2018-03-28T14:37:32.526Z,9.53
2018-03-28T14:43:23.351Z,4.94
2018-03-28T14:49:14.252Z,4.9
2018-03-28T14:55:05.158Z,9.78
2018-03-28T15:00:56.034Z,11.13
2018-03-28T15:06:46.914Z,6.59
2018-03-28T15:12:37.846Z,7.5
2018-03-28T15:18:28.749Z,11.16
2018-03-28T15:24:19.656Z,7.71
2018-03-28T15:30:10.574Z,8.11
2018-03-28T15:36:01.413Z,14.26
2018-03-28T15:41:52.354Z,8.47
2018-03-28T15:47:43.212Z,8.41
2018-03-28T15:53:34.132Z,8.06
2018-03-28T15:59:25.092Z,13.99
2018-03-28T16:05:15.933Z,10.74
2018-03-28T16:11:06.892Z,12.71
2018-03-28T16:16:57.765Z,6.98
2018-03-28T16:22:48.626Z,6.25
2018-03-28T16:28:39.498Z,7.89
2018-03-28T16:34:30.474Z,7.1
2018-03-28T16:40:21.297Z,8.13
2018-03-28T16:46:12.208Z,7.76
2018-03-28T16:52:03.102Z,6.61
2018-03-28T16:57:54.010Z,7.84
2018-03-28T17:03:44.927Z,6.81
2018-03-28T17:09:35.819Z,8.56
2018-03-28T17:15:26.714Z,11.93
2018-03-28T17:21:17.569Z,11.71
2018-03-28T17:27:08.495Z,11.8
2018-03-28T17:32:59.394Z,10.15
2018-03-28T17:38:50.312Z,12.02
2018-03-28T17:44:41.240Z,18.97
2018-03-28T17:50:32.098Z,12.45
2018-03-28T17:56:22.963Z,13.86
2018-03-28T18:02:13.933Z,11.47
2018-03-28T18:08:04.802Z,12.03
2018-03-28T18:13:55.670Z,11.52
2018-03-28T18:19:46.603Z,10.21
2018-03-28T18:25:37.453Z,11.16
2018-03-28T18:31:28.363Z,11.43
2018-03-28T18:37:19.241Z,11.1
2018-03-28T18:43:10.150Z,9.51
2018-03-28T18:49:01.066Z,9.85
2018-03-28T18:54:51.939Z,10.5
2018-03-28T19:00:42.872Z,11.78
2018-03-28T19:06:33.752Z,10.06
2018-03-28T19:12:24.648Z,10.98
2018-03-28T19:18:15.570Z,8.23
2018-03-28T19:24:06.477Z,7.87
2018-03-28T19:29:57.367Z,9.84
2018-03-28T19:35:48.209Z,12.76
2018-03-28T19:41:39.138Z,9.52
2018-03-28T19:47:30.137Z,10.16
2018-03-28T19:53:20.952Z,7.67
2018-03-28T19:59:11.812Z,10.05
2018-03-28T20:05:02.768Z,9.08
2018-03-28T20:10:53.649Z,13.45
2018-03-28T20:16:44.475Z,10.31
2018-03-28T20:22:35.393Z,11.46
2018-03-28T20:28:26.308Z,10.84
2018-03-28T20:34:17.156Z,11.48
2018-03-28T20:40:08.085Z,10.3
2018-03-28T20:45:58.978Z,10.73
2018-03-28T20:51:49.874Z,11.17
2018-03-28T20:57:40.804Z,12.76
2018-03-28T21:03:31.700Z,12.1
2018-03-28T21:09:22.559Z,13.38
2018-03-28T21:15:13.478Z,10.6
2018-03-28T21:21:04.329Z,7.18
2018-03-28T21:26:55.231Z,12.6
2018-03-28T21:32:46.191Z,7.74
2018-03-28T21:38:37.034Z,8.47
2018-03-28T21:44:27.980Z,9.79
2018-03-28T21:50:18.825Z,6.89
2018-03-28T21:56:09.788Z,8.74
2018-03-28T22:02:00.617Z,7.68
2018-03-28T22:07:51.562Z,10.3
2018-03-28T22:13:42.431Z,7.72
2018-03-28T22:19:33.293Z,7.44
2018-03-28T22:25:24.199Z,14.87
2018-03-28T22:31:15.122Z,7.63
2018-03-28T22:37:06.024Z,10.52
2018-03-28T22:42:56.853Z,7.09
2018-03-28T22:48:47.802Z,10.55
2018-03-28T22:54:38.655Z,12.34
2018-03-28T23:00:29.551Z,8.5
2018-03-28T23:06:20.441Z,8.85
2018-03-28T23:12:11.378Z,7.41
2018-03-28T23:18:02.325Z,8.04
2018-03-28T23:23:53.128Z,11.96
2018-03-28T23:29:44.057Z,14.24
2018-03-28T23:35:34.994Z,9.62
2018-03-28T23:41:25.849Z,7.97
2018-03-28T23:47:16.739Z,20.15
2018-03-28T23:53:07.627Z,13.05
2018-03-28T23:58:58.527Z,8.51
